Impacts TAF Board
For situational awareness. Not to be used for flight planning purposes.
IDs:

KMEM - Memphis Intl, TN, US

Issued at 1725 UTC 20 Jan 2019
Updated at 1802 UTC 20 Jan 2019
Potential Impact None Slight Moderate High
Time1754Z 20/19Z 20/20Z 20/21Z 20/22Z 20/23Z 21/00Z 21/01Z 21/02Z 21/03Z 21/04Z 21/05Z 21/06Z 21/07Z>>
Type OBS PRVL PRVL PRVL PRVL PRVL PRVL PRVL PRVL PRVL PRVL PRVL PRVL PRVL
VIS 10 >6 >6 >6 >6 >6 >6 >6 >6 >6 >6 >6 >6 >6
CIG -- 250 250 250 250 250 250 120 120 120 120 120 120 120
Cover SCT BKN BKN BKN BKN BKN BKN BKN BKN BKN BKN BKN BKN BKN
FltCat VFR VFR VFR VFR VFR VFR VFR VFR VFR VFR VFR VFR VFR VFR
WX -- -- -- -- -- -- -- -- -- -- -- -- -- --
WDir 310 350 350 350 350 350 350 30 30 30 30 30 30 30
WSpd 9 7 7 7 7 7 7 5 5 5 5 5 5 5
WGst 14 -- -- -- -- -- -- -- -- -- -- -- -- --
Raw TAF
KMEM 201725Z 2018/2124 35007KT P6SM BKN250
  FM210100 03005KT P6SM BKN120 BKN250
  FM211500 11008KT P6SM SCT250


Raw METAR
KMEM 201754Z 31009G14KT 10SM SCT028 M01/M06 A3033 RMK AO2 SLP275 T10061061 11006 21044 50004 $
KMEM 201654Z VRB05KT 10SM SCT026 M02/M08 A3034 RMK AO2 SLP277 T10171078 $
KMEM 201554Z 01009KT 10SM SCT024 M02/M07 A3032 RMK AO2 SLP272 T10221072 $

METAR Board
Radar Display
Forecast Discussion
For situational awareness. Not to be used for flight planning purposes.